createdAt,value
2023-04-30T00:01:40.317Z,9.15
2023-04-30T00:04:08.056Z,9.36
2023-04-30T00:06:35.674Z,9.13
2023-04-30T00:09:04.580Z,9.27
2023-04-30T00:11:32.056Z,9.19
2023-04-30T00:13:59.599Z,8.66
2023-04-30T00:16:27.152Z,9.10
2023-04-30T00:18:55.106Z,8.83
2023-04-30T00:21:22.655Z,8.98
2023-04-30T00:23:50.169Z,9.00
2023-04-30T00:26:19.004Z,8.88
2023-04-30T00:28:49.310Z,9.05
2023-04-30T00:31:16.847Z,9.09
2023-04-30T00:33:44.588Z,9.27
2023-04-30T00:36:12.090Z,9.08
2023-04-30T00:38:40.080Z,9.03
2023-04-30T00:41:07.671Z,9.20
2023-04-30T00:43:36.514Z,9.29
2023-04-30T00:46:06.668Z,9.14
2023-04-30T00:48:34.792Z,9.43
2023-04-30T00:51:02.511Z,9.26
2023-04-30T00:53:29.992Z,9.16
2023-04-30T00:55:57.588Z,9.06
2023-04-30T00:58:26.563Z,8.97
2023-04-30T01:00:55.424Z,9.08
2023-04-30T01:03:23.207Z,9.01
2023-04-30T01:05:50.821Z,8.80
2023-04-30T01:08:18.353Z,8.84
2023-04-30T01:10:46.975Z,8.80
2023-04-30T01:13:16.817Z,8.79
2023-04-30T01:15:46.824Z,8.81
2023-04-30T01:18:17.559Z,8.68
2023-04-30T01:20:45.589Z,8.66
2023-04-30T01:23:21.025Z,8.64
2023-04-30T01:25:53.532Z,8.63
2023-04-30T01:28:24.656Z,8.27
2023-04-30T01:30:53.036Z,8.45
2023-04-30T01:33:21.107Z,8.20
2023-04-30T01:36:03.603Z,7.96
2023-04-30T01:38:34.653Z,7.86
2023-04-30T01:41:02.880Z,7.70
2023-04-30T01:43:33.628Z,7.72
2023-04-30T01:46:03.262Z,7.80
2023-04-30T01:48:33.621Z,7.62
2023-04-30T01:51:03.122Z,7.98
2023-04-30T01:53:38.872Z,7.96
2023-04-30T01:56:07.106Z,7.72
2023-04-30T01:58:36.093Z,7.53
2023-04-30T02:01:03.645Z,7.77
2023-04-30T02:03:31.217Z,7.97
2023-04-30T02:05:59.165Z,7.76
2023-04-30T02:08:27.199Z,7.39
2023-04-30T02:10:55.003Z,7.44
2023-04-30T02:13:22.528Z,7.29
2023-04-30T02:15:51.547Z,7.32
2023-04-30T02:18:19.148Z,7.76
2023-04-30T02:20:46.712Z,7.60
2023-04-30T02:23:14.232Z,7.59
2023-04-30T02:25:42.521Z,7.94
2023-04-30T02:28:10.062Z,8.09
2023-04-30T02:30:37.626Z,8.01
2023-04-30T02:33:07.170Z,7.55
2023-04-30T02:35:34.788Z,7.28
2023-04-30T02:38:02.318Z,7.24
2023-04-30T02:40:29.888Z,6.42
2023-04-30T02:42:57.490Z,6.03
2023-04-30T02:45:25.090Z,6.22
2023-04-30T02:47:52.696Z,5.66
2023-04-30T02:50:21.683Z,6.17
2023-04-30T02:52:49.171Z,6.35
2023-04-30T02:55:16.774Z,6.66
2023-04-30T02:57:44.314Z,6.21
2023-04-30T03:00:13.060Z,6.70
2023-04-30T03:02:41.023Z,6.02
2023-04-30T03:05:09.083Z,5.61
2023-04-30T03:07:38.191Z,5.23
2023-04-30T03:10:06.403Z,4.89
2023-04-30T03:12:34.105Z,4.80
2023-04-30T03:15:01.903Z,4.93
2023-04-30T03:17:29.429Z,5.01
2023-04-30T03:19:57.490Z,4.91
2023-04-30T03:22:26.724Z,4.70
2023-04-30T03:24:55.979Z,4.86
2023-04-30T03:27:23.746Z,4.71
2023-04-30T03:29:51.300Z,4.97
2023-04-30T03:32:18.816Z,5.09
2023-04-30T03:34:46.670Z,5.35
2023-04-30T03:37:14.188Z,4.94
2023-04-30T03:39:41.723Z,5.06
2023-04-30T03:42:10.581Z,5.03
2023-04-30T03:44:39.088Z,5.02
2023-04-30T03:47:06.844Z,4.80
2023-04-30T03:49:34.406Z,4.75
2023-04-30T03:52:02.540Z,4.93
2023-04-30T03:54:30.092Z,5.07
2023-04-30T03:56:57.704Z,4.77
2023-04-30T03:59:26.643Z,4.89
2023-04-30T04:01:54.190Z,4.59
2023-04-30T04:04:21.911Z,4.25
2023-04-30T04:06:49.517Z,4.00
2023-04-30T04:09:18.814Z,4.47
2023-04-30T04:11:46.363Z,4.17
2023-04-30T04:14:13.950Z,4.41
2023-04-30T04:16:44.574Z,4.67
2023-04-30T04:19:12.962Z,3.83
2023-04-30T04:21:40.516Z,3.55
2023-04-30T04:24:14.662Z,3.97
2023-04-30T04:26:42.558Z,3.95
2023-04-30T04:29:11.064Z,4.37
2023-04-30T04:31:41.756Z,4.74
2023-04-30T04:34:10.745Z,4.94
2023-04-30T04:36:38.881Z,5.04
2023-04-30T04:39:06.692Z,4.92
2023-04-30T04:41:34.856Z,4.58
2023-04-30T04:44:04.357Z,4.78
2023-04-30T04:46:32.067Z,4.84
2023-04-30T04:49:00.017Z,5.02
2023-04-30T04:51:28.987Z,4.97
2023-04-30T04:53:56.524Z,5.21
2023-04-30T04:56:24.387Z,5.19
2023-04-30T04:58:54.294Z,5.22
2023-04-30T05:01:21.880Z,5.41
2023-04-30T05:04:10.843Z,5.10
2023-04-30T05:06:40.861Z,5.33
2023-04-30T05:09:09.626Z,5.38
2023-04-30T05:11:37.166Z,5.91
2023-04-30T05:14:04.835Z,6.49
2023-04-30T05:16:32.377Z,6.26
2023-04-30T05:18:59.972Z,5.67
2023-04-30T05:21:29.844Z,5.91
2023-04-30T05:23:58.769Z,6.04
2023-04-30T05:26:26.432Z,6.03
2023-04-30T05:28:54.013Z,5.77
2023-04-30T05:31:21.548Z,6.00
2023-04-30T05:33:49.172Z,6.03
2023-04-30T05:36:16.874Z,5.62
2023-04-30T05:41:57.047Z,5.77
2023-04-30T05:44:24.767Z,6.65
2023-04-30T05:46:52.455Z,6.15
2023-04-30T05:49:23.511Z,5.79
2023-04-30T05:51:51.246Z,5.94
2023-04-30T05:54:19.024Z,5.87
2023-04-30T05:56:47.394Z,5.94
2023-04-30T05:59:18.489Z,5.81
2023-04-30T06:01:49.355Z,5.77
2023-04-30T06:04:20.100Z,5.89
2023-04-30T06:06:47.959Z,6.29
2023-04-30T06:09:18.603Z,6.27
2023-04-30T06:11:50.543Z,5.95
2023-04-30T06:14:20.186Z,6.18
2023-04-30T06:16:48.380Z,5.86
2023-04-30T06:19:19.248Z,6.27
2023-04-30T06:21:47.021Z,6.24
2023-04-30T06:24:14.846Z,6.02
2023-04-30T06:27:21.582Z,5.77
2023-04-30T06:29:50.936Z,5.66
2023-04-30T06:32:44.221Z,5.88
2023-04-30T06:35:12.113Z,5.73
2023-04-30T06:37:40.453Z,5.78
2023-04-30T06:40:17.068Z,6.00
2023-04-30T06:42:47.569Z,6.21
2023-04-30T06:45:17.085Z,6.64
2023-04-30T06:47:46.278Z,6.44
2023-04-30T06:50:15.645Z,6.87
2023-04-30T06:52:43.554Z,6.67
2023-04-30T06:55:11.665Z,6.21
2023-04-30T06:57:39.980Z,6.00
2023-04-30T07:00:09.174Z,6.41
2023-04-30T07:02:38.747Z,6.29
2023-04-30T07:05:07.148Z,6.19
2023-04-30T07:07:34.959Z,6.08
2023-04-30T07:10:02.664Z,6.42
2023-04-30T07:12:30.422Z,6.62
2023-04-30T07:14:58.153Z,6.14
2023-04-30T07:17:27.621Z,6.65
2023-04-30T07:19:57.085Z,6.28
2023-04-30T07:22:25.064Z,6.15
2023-04-30T07:24:52.817Z,6.25
2023-04-30T07:27:20.547Z,6.37
2023-04-30T07:29:48.472Z,6.48
2023-04-30T07:32:16.421Z,6.22
2023-04-30T07:34:44.181Z,6.60
2023-04-30T07:37:13.500Z,6.52
2023-04-30T07:39:41.262Z,6.09
2023-04-30T07:42:08.987Z,6.15
2023-04-30T07:44:36.745Z,6.30
2023-04-30T07:47:04.567Z,6.77
2023-04-30T07:49:32.278Z,6.54
2023-04-30T07:52:00.932Z,6.54
2023-04-30T07:54:30.138Z,6.98
2023-04-30T07:56:57.941Z,6.91
2023-04-30T07:59:25.957Z,6.78
2023-04-30T08:01:53.749Z,6.58
2023-04-30T08:04:21.560Z,6.41
2023-04-30T08:06:49.489Z,6.71
2023-04-30T08:09:17.283Z,6.88
2023-04-30T08:11:46.538Z,6.99
2023-04-30T08:14:14.264Z,7.19
2023-04-30T08:16:42.215Z,6.99
2023-04-30T08:19:10.014Z,6.75
2023-04-30T08:21:37.739Z,6.92
2023-04-30T08:24:05.621Z,6.75
2023-04-30T08:26:33.366Z,6.61
2023-04-30T08:29:02.620Z,6.91
2023-04-30T08:31:30.386Z,7.02
2023-04-30T08:33:58.165Z,7.14
2023-04-30T08:36:25.948Z,6.97
2023-04-30T08:38:53.728Z,7.51
2023-04-30T08:41:22.062Z,7.88
2023-04-30T08:43:49.835Z,7.53
2023-04-30T08:46:21.932Z,7.38
2023-04-30T08:48:49.750Z,7.10
2023-04-30T08:51:17.462Z,6.82
2023-04-30T08:53:45.902Z,7.02
2023-04-30T08:56:13.652Z,7.25
2023-04-30T08:58:41.647Z,7.39
2023-04-30T09:01:09.830Z,7.48
2023-04-30T09:03:39.378Z,7.74
2023-04-30T09:06:07.355Z,8.45
2023-04-30T09:08:44.982Z,8.13
2023-04-30T09:11:25.850Z,8.38
2023-04-30T09:13:54.179Z,8.70
2023-04-30T09:16:22.138Z,8.22
2023-04-30T09:18:51.550Z,8.82
2023-04-30T09:21:21.555Z,7.90
2023-04-30T09:23:55.980Z,7.90
2023-04-30T09:26:28.149Z,8.19
2023-04-30T09:28:57.217Z,8.12
2023-04-30T09:31:26.144Z,8.67
2023-04-30T09:33:55.316Z,8.69
2023-04-30T09:36:23.200Z,9.17
2023-04-30T09:38:50.926Z,9.68
2023-04-30T09:41:26.229Z,9.52
2023-04-30T09:43:54.308Z,8.88
2023-04-30T09:46:22.444Z,8.63
2023-04-30T09:48:58.972Z,8.89
2023-04-30T09:51:27.326Z,9.18
2023-04-30T09:53:55.878Z,9.23
2023-04-30T09:56:24.543Z,9.72
2023-04-30T09:58:53.576Z,9.56
2023-04-30T10:01:21.483Z,8.85
2023-04-30T10:03:49.643Z,8.87
2023-04-30T10:06:19.482Z,10.19
2023-04-30T10:08:48.496Z,9.56
2023-04-30T10:11:19.712Z,9.57
2023-04-30T10:13:48.834Z,9.30
2023-04-30T10:16:19.342Z,9.74
2023-04-30T10:18:47.288Z,9.26
2023-04-30T10:21:15.031Z,10.35
2023-04-30T10:23:44.468Z,10.17
2023-04-30T10:26:12.973Z,10.53
2023-04-30T10:28:40.894Z,10.08
2023-04-30T10:31:09.011Z,10.08
2023-04-30T10:33:41.699Z,10.13
2023-04-30T10:36:12.871Z,10.54
2023-04-30T10:38:40.819Z,10.32
2023-04-30T10:41:10.676Z,10.59
2023-04-30T10:43:38.428Z,10.74
2023-04-30T10:46:06.635Z,10.90
2023-04-30T10:48:35.926Z,10.61
2023-04-30T10:51:04.066Z,10.46
2023-04-30T10:53:32.317Z,10.26
2023-04-30T10:56:06.567Z,11.19
2023-04-30T10:58:36.402Z,11.69
2023-04-30T11:01:06.168Z,12.20
2023-04-30T11:03:34.466Z,11.29
2023-04-30T11:06:03.891Z,11.51
2023-04-30T11:08:35.487Z,11.47
2023-04-30T11:11:04.960Z,11.69
2023-04-30T11:13:45.453Z,12.00
2023-04-30T11:16:13.095Z,11.01
2023-04-30T11:18:50.103Z,11.48
2023-04-30T11:21:17.615Z,11.12
2023-04-30T11:23:45.239Z,11.72
2023-04-30T11:26:15.928Z,11.56
2023-04-30T11:28:51.157Z,11.36
2023-04-30T11:31:18.696Z,11.98
2023-04-30T11:33:46.431Z,11.69
2023-04-30T11:36:16.897Z,12.17
2023-04-30T11:38:45.795Z,11.74
2023-04-30T11:41:13.957Z,11.81
2023-04-30T11:43:41.517Z,12.12
2023-04-30T11:46:11.087Z,12.34
2023-04-30T11:48:40.748Z,12.09
2023-04-30T11:51:15.214Z,11.85
2023-04-30T11:53:46.723Z,12.00
2023-04-30T11:56:14.371Z,12.38
2023-04-30T11:58:41.911Z,12.39
2023-04-30T12:01:20.147Z,12.93
2023-04-30T12:03:48.511Z,12.72
2023-04-30T12:06:22.616Z,12.86
2023-04-30T12:08:51.910Z,12.04
2023-04-30T12:11:25.124Z,12.29
2023-04-30T12:13:53.460Z,12.85
2023-04-30T12:16:25.054Z,13.31
2023-04-30T12:19:00.880Z,13.06
2023-04-30T12:21:29.995Z,12.22
2023-04-30T12:23:57.558Z,12.60
2023-04-30T12:26:27.478Z,12.63
2023-04-30T12:28:55.238Z,12.97
2023-04-30T12:31:27.400Z,12.50
2023-04-30T12:33:56.900Z,12.59
2023-04-30T12:39:13.386Z,13.15
2023-04-30T12:41:41.393Z,13.03
2023-04-30T12:44:18.366Z,13.42
2023-04-30T12:46:48.172Z,12.76
2023-04-30T12:49:23.929Z,13.35
2023-04-30T12:51:51.607Z,12.74
2023-04-30T12:54:26.023Z,13.26
2023-04-30T12:57:00.325Z,13.78
2023-04-30T12:59:27.893Z,13.64
2023-04-30T13:01:56.827Z,13.23
2023-04-30T13:04:24.510Z,14.00
2023-04-30T13:06:52.247Z,13.13
2023-04-30T13:09:19.729Z,13.59
2023-04-30T13:11:47.300Z,13.47
2023-04-30T13:14:14.795Z,13.59
2023-04-30T13:16:42.458Z,13.29
2023-04-30T13:19:11.397Z,13.26
2023-04-30T13:21:41.602Z,13.71
2023-04-30T13:24:09.139Z,13.86
2023-04-30T13:26:37.256Z,13.79
2023-04-30T13:29:04.824Z,14.34
2023-04-30T13:31:32.493Z,14.64
2023-04-30T13:34:00.123Z,14.08
2023-04-30T13:36:29.314Z,14.28
2023-04-30T13:38:57.522Z,14.41
2023-04-30T13:41:26.070Z,13.76
2023-04-30T13:43:53.667Z,13.68
2023-04-30T13:46:21.306Z,13.52
2023-04-30T13:48:51.833Z,13.81
2023-04-30T13:51:19.336Z,13.95
2023-04-30T13:53:48.178Z,13.96
2023-04-30T13:56:16.425Z,13.89
2023-04-30T13:58:44.161Z,13.48
2023-04-30T14:01:12.121Z,13.88
2023-04-30T14:03:39.795Z,13.94
2023-04-30T14:06:07.485Z,13.50
2023-04-30T14:08:35.057Z,13.58
2023-04-30T14:11:03.920Z,14.23
2023-04-30T14:13:31.487Z,14.29
2023-04-30T14:15:59.017Z,13.94
2023-04-30T14:18:26.755Z,14.17
2023-04-30T14:20:54.268Z,14.29
2023-04-30T14:23:21.803Z,14.23
2023-04-30T14:25:49.383Z,13.91
2023-04-30T14:28:18.285Z,13.92
2023-04-30T14:30:45.789Z,13.90
2023-04-30T14:33:13.676Z,14.08
2023-04-30T14:35:41.590Z,14.00
2023-04-30T14:38:09.241Z,14.25
2023-04-30T14:40:36.743Z,14.39
2023-04-30T14:43:04.312Z,13.89
2023-04-30T14:45:33.203Z,14.23
2023-04-30T14:48:02.514Z,14.04
2023-04-30T14:50:31.506Z,14.22
2023-04-30T14:52:59.042Z,14.25
2023-04-30T14:55:26.573Z,14.36
2023-04-30T14:57:54.295Z,14.39
2023-04-30T15:00:21.861Z,14.12
2023-04-30T15:02:50.805Z,14.31
2023-04-30T15:05:18.392Z,14.04
2023-04-30T15:07:45.925Z,14.07
2023-04-30T15:10:13.448Z,14.29
2023-04-30T15:12:40.989Z,13.44
2023-04-30T15:15:08.918Z,13.85
2023-04-30T15:17:37.091Z,14.13
2023-04-30T15:20:06.780Z,13.78
2023-04-30T15:22:34.393Z,13.74
2023-04-30T15:25:02.397Z,13.78
2023-04-30T15:27:31.771Z,13.75
2023-04-30T15:30:00.052Z,13.58
2023-04-30T15:32:27.702Z,13.23
2023-04-30T15:34:55.234Z,13.60
2023-04-30T15:37:24.085Z,13.42
2023-04-30T15:39:51.664Z,13.52
2023-04-30T15:42:19.210Z,13.72
2023-04-30T15:44:46.896Z,13.68
2023-04-30T15:47:14.413Z,13.73
2023-04-30T15:49:42.373Z,13.43
2023-04-30T15:52:10.147Z,13.37
2023-04-30T15:54:39.004Z,13.48
2023-04-30T15:57:06.585Z,13.60
2023-04-30T15:59:35.033Z,13.20
2023-04-30T16:02:05.084Z,13.69
2023-04-30T16:04:32.640Z,13.42
2023-04-30T16:07:01.163Z,13.54
2023-04-30T16:09:31.019Z,13.63
2023-04-30T16:12:00.176Z,13.74
2023-04-30T16:14:27.773Z,13.60
2023-04-30T16:17:00.823Z,13.52
2023-04-30T16:19:31.550Z,13.60
2023-04-30T16:22:00.503Z,13.06
2023-04-30T16:24:28.376Z,13.09
2023-04-30T16:26:56.363Z,13.49
2023-04-30T16:29:29.815Z,13.27
2023-04-30T16:32:03.296Z,12.98
2023-04-30T16:34:30.980Z,13.17
2023-04-30T16:36:58.516Z,13.12
2023-04-30T16:39:26.093Z,12.86
2023-04-30T16:41:53.590Z,12.83
2023-04-30T16:44:21.696Z,12.93
2023-04-30T16:46:50.649Z,12.94
2023-04-30T16:49:18.156Z,12.86
2023-04-30T16:51:45.947Z,12.59
2023-04-30T16:54:13.663Z,12.70
2023-04-30T16:56:41.361Z,12.59
2023-04-30T16:59:10.164Z,12.59
2023-04-30T17:01:37.696Z,12.48
2023-04-30T17:04:06.744Z,12.59
2023-04-30T17:06:35.357Z,12.32
2023-04-30T17:09:05.198Z,12.50
2023-04-30T17:11:32.885Z,12.26
2023-04-30T17:14:00.430Z,12.22
2023-04-30T17:16:30.423Z,12.09
2023-04-30T17:19:00.676Z,11.98
2023-04-30T17:21:32.055Z,11.92
2023-04-30T17:23:59.589Z,11.89
2023-04-30T17:26:27.225Z,11.80
2023-04-30T17:28:55.113Z,11.62
2023-04-30T17:31:22.803Z,11.65
2023-04-30T17:33:50.393Z,11.61
2023-04-30T17:36:19.189Z,11.53
2023-04-30T17:38:49.438Z,11.45
2023-04-30T17:41:18.515Z,11.26
2023-04-30T17:43:46.133Z,11.26
2023-04-30T17:46:16.659Z,11.11
2023-04-30T17:48:47.243Z,11.03
2023-04-30T17:51:14.766Z,10.93
2023-04-30T17:53:46.564Z,10.96
2023-04-30T17:56:17.756Z,10.71
2023-04-30T17:58:47.289Z,10.56
2023-04-30T18:01:17.141Z,10.43
2023-04-30T18:03:46.166Z,10.53
2023-04-30T18:06:13.893Z,10.22
2023-04-30T18:08:41.425Z,10.05
2023-04-30T18:11:12.183Z,10.09
2023-04-30T18:13:43.530Z,9.90
2023-04-30T18:16:12.871Z,9.81
2023-04-30T18:18:41.014Z,9.54
2023-04-30T18:21:11.780Z,9.20
2023-04-30T18:23:42.171Z,9.09
2023-04-30T18:26:10.487Z,8.70
2023-04-30T18:28:38.046Z,8.70
2023-04-30T18:31:08.739Z,8.45
2023-04-30T18:33:38.718Z,8.40
2023-04-30T18:36:07.536Z,8.32
2023-04-30T18:38:49.653Z,8.21
2023-04-30T18:41:17.173Z,8.37
2023-04-30T18:43:44.875Z,8.50
2023-04-30T18:46:13.760Z,8.11
2023-04-30T18:48:41.301Z,7.90
2023-04-30T18:51:09.054Z,7.69
2023-04-30T18:53:38.838Z,7.79
2023-04-30T18:56:08.531Z,7.71
2023-04-30T18:58:38.983Z,7.95
2023-04-30T19:01:08.818Z,7.83
2023-04-30T19:03:39.274Z,7.82
2023-04-30T19:06:09.517Z,8.01
2023-04-30T19:08:39.910Z,7.84
2023-04-30T19:11:07.446Z,7.83
2023-04-30T19:13:34.981Z,7.95
2023-04-30T19:16:02.665Z,8.14
2023-04-30T19:18:30.209Z,8.39
2023-04-30T19:21:07.181Z,8.32
2023-04-30T19:23:35.759Z,8.40
2023-04-30T19:26:03.347Z,8.25
2023-04-30T19:28:30.866Z,8.41
2023-04-30T19:31:01.368Z,8.45
2023-04-30T19:33:29.965Z,8.29
2023-04-30T19:35:58.840Z,8.36
2023-04-30T19:38:26.353Z,7.91
2023-04-30T19:40:54.924Z,7.67
2023-04-30T19:43:25.288Z,7.70
2023-04-30T19:45:53.349Z,7.04
2023-04-30T19:48:21.090Z,6.78
2023-04-30T19:50:48.795Z,7.08
2023-04-30T19:53:17.996Z,7.00
2023-04-30T19:55:47.007Z,6.80
2023-04-30T19:58:14.560Z,7.12
2023-04-30T20:00:42.678Z,6.66
2023-04-30T20:03:10.497Z,6.55
2023-04-30T20:05:39.388Z,6.90
2023-04-30T20:08:07.705Z,6.94
2023-04-30T20:10:36.958Z,6.21
2023-04-30T20:13:07.327Z,6.33
2023-04-30T20:15:35.156Z,6.45
2023-04-30T20:18:04.996Z,6.66
2023-04-30T20:20:35.294Z,6.66
2023-04-30T20:23:14.001Z,7.11
2023-04-30T20:25:45.388Z,7.15
2023-04-30T20:28:13.501Z,7.36
2023-04-30T20:30:42.776Z,6.08
2023-04-30T20:33:12.230Z,6.36
2023-04-30T20:35:40.347Z,6.69
2023-04-30T20:38:11.982Z,6.00
2023-04-30T20:40:40.552Z,5.88
2023-04-30T20:43:10.354Z,5.97
2023-04-30T20:45:37.980Z,5.96
2023-04-30T20:48:12.959Z,5.87
2023-04-30T20:50:41.211Z,6.53
2023-04-30T20:53:23.866Z,6.46
2023-04-30T20:55:59.728Z,5.50
2023-04-30T20:58:31.057Z,5.54
2023-04-30T21:01:06.770Z,5.46
2023-04-30T21:03:36.676Z,5.26
2023-04-30T21:06:05.203Z,5.33
2023-04-30T21:08:40.052Z,5.31
2023-04-30T21:11:08.344Z,5.74
2023-04-30T21:13:41.296Z,6.40
2023-04-30T21:16:09.036Z,6.50
2023-04-30T21:18:36.645Z,6.22
2023-04-30T21:21:04.756Z,5.94
2023-04-30T21:23:32.659Z,5.82
2023-04-30T21:26:00.240Z,5.45
2023-04-30T21:28:27.849Z,5.56
2023-04-30T21:30:56.810Z,5.82
2023-04-30T21:33:24.436Z,5.84
2023-04-30T21:35:51.930Z,6.17
2023-04-30T21:38:19.477Z,6.52
2023-04-30T21:40:46.999Z,6.77
2023-04-30T21:43:14.539Z,6.17
2023-04-30T21:45:43.435Z,6.28
2023-04-30T21:48:12.489Z,6.30
2023-04-30T21:50:40.164Z,6.20
2023-04-30T21:53:08.077Z,5.73
2023-04-30T21:55:35.803Z,5.82
2023-04-30T21:58:03.562Z,5.87
2023-04-30T22:00:31.077Z,5.32
2023-04-30T22:02:58.985Z,4.79
2023-04-30T22:05:28.918Z,4.60
2023-04-30T22:07:56.477Z,4.54
2023-04-30T22:10:24.222Z,4.37
2023-04-30T22:12:51.783Z,4.51
2023-04-30T22:15:19.297Z,4.68
2023-04-30T22:17:47.699Z,4.56
2023-04-30T22:20:15.235Z,4.65
2023-04-30T22:22:44.151Z,4.50
2023-04-30T22:25:11.674Z,4.45
2023-04-30T22:27:39.275Z,4.94
2023-04-30T22:30:07.601Z,4.80
2023-04-30T22:32:35.365Z,4.89
2023-04-30T22:35:03.182Z,4.60
2023-04-30T22:37:31.169Z,4.15
2023-04-30T22:40:00.113Z,4.49
2023-04-30T22:42:27.685Z,4.70
2023-04-30T22:44:55.265Z,4.37
2023-04-30T22:47:22.834Z,4.47
2023-04-30T22:49:50.353Z,4.62
2023-04-30T22:52:18.229Z,4.87
2023-04-30T22:54:46.464Z,4.60
2023-04-30T22:57:15.419Z,4.32
2023-04-30T22:59:43.028Z,3.83
2023-04-30T23:02:10.558Z,3.69
2023-04-30T23:04:38.398Z,4.04
2023-04-30T23:07:06.258Z,4.33
2023-04-30T23:09:33.886Z,4.21
2023-04-30T23:12:01.595Z,3.65
2023-04-30T23:14:30.500Z,3.73
2023-04-30T23:16:58.188Z,4.11
2023-04-30T23:19:25.973Z,4.30
2023-04-30T23:21:53.488Z,3.67
2023-04-30T23:24:20.987Z,4.01
2023-04-30T23:26:48.502Z,3.93
2023-04-30T23:29:16.017Z,4.00
2023-04-30T23:31:45.086Z,3.39
2023-04-30T23:34:12.790Z,3.44
2023-04-30T23:36:40.391Z,3.87
2023-04-30T23:39:08.183Z,4.07
2023-04-30T23:41:35.799Z,3.98
2023-04-30T23:44:03.854Z,3.44
2023-04-30T23:46:31.440Z,3.68
2023-04-30T23:49:00.377Z,3.60
2023-04-30T23:51:27.891Z,4.03
2023-04-30T23:53:55.388Z,3.82
2023-04-30T23:56:22.947Z,3.58
2023-04-30T23:58:50.454Z,3.54
